sensor_id;sensor_type;location;lat;lon;timestamp;noise_LAeq;noise_LA_min;noise_LA_max;noise_LA01;noise_LA95
67322;Laerm;57666;51.436;5.978;2023-05-17T00:00:09;47.19;43.30;54.00;;
67322;Laerm;57666;51.436;5.978;2023-05-17T00:00:20;44.85;42.69;47.07;;
67322;Laerm;57666;51.436;5.978;2023-05-17T00:00:30;45.16;43.19;48.33;;
67322;Laerm;57666;51.436;5.978;2023-05-17T00:00:41;45.62;43.48;48.38;;
67322;Laerm;57666;51.436;5.978;2023-05-17T00:00:51;45.72;43.52;48.83;;
67322;Laerm;57666;51.436;5.978;2023-05-17T00:01:02;45.25;43.41;47.70;;
67322;Laerm;57666;51.436;5.978;2023-05-17T00:01:12;45.54;43.47;47.77;;
67322;Laerm;57666;51.436;5.978;2023-05-17T00:01:24;45.76;43.56;47.82;;
67322;Laerm;57666;51.436;5.978;2023-05-17T00:01:34;45.55;43.58;47.61;;
67322;Laerm;57666;51.436;5.978;2023-05-17T00:01:45;46.84;44.19;49.38;;
67322;Laerm;57666;51.436;5.978;2023-05-17T00:01:55;53.61;46.23;61.61;;
67322;Laerm;57666;51.436;5.978;2023-05-17T00:02:06;63.91;59.66;72.50;;
67322;Laerm;57666;51.436;5.978;2023-05-17T00:02:16;66.58;61.91;72.83;;
67322;Laerm;57666;51.436;5.978;2023-05-17T00:02:26;60.94;45.68;67.59;;
67322;Laerm;57666;51.436;5.978;2023-05-17T00:02:39;45.63;43.54;48.21;;
67322;Laerm;57666;51.436;5.978;2023-05-17T00:02:50;45.54;42.82;47.77;;
67322;Laerm;57666;51.436;5.978;2023-05-17T00:03:01;45.51;43.48;47.27;;
67322;Laerm;57666;51.436;5.978;2023-05-17T00:03:11;45.43;43.34;47.10;;
67322;Laerm;57666;51.436;5.978;2023-05-17T00:03:22;45.69;43.61;48.41;;
67322;Laerm;57666;51.436;5.978;2023-05-17T00:03:35;45.34;42.89;48.06;;
67322;Laerm;57666;51.436;5.978;2023-05-17T00:03:45;45.09;43.35;47.54;;
67322;Laerm;57666;51.436;5.978;2023-05-17T00:03:55;44.61;42.72;46.70;;
67322;Laerm;57666;51.436;5.978;2023-05-17T00:04:06;45.03;43.22;47.34;;
67322;Laerm;57666;51.436;5.978;2023-05-17T00:04:16;44.83;42.90;47.26;;
67322;Laerm;57666;51.436;5.978;2023-05-17T00:04:26;44.85;42.51;47.48;;
67322;Laerm;57666;51.436;5.978;2023-05-17T00:04:37;45.07;42.64;47.19;;
67322;Laerm;57666;51.436;5.978;2023-05-17T00:04:47;44.93;42.93;47.25;;
67322;Laerm;57666;51.436;5.978;2023-05-17T00:04:57;45.29;43.41;47.67;;
67322;Laerm;57666;51.436;5.978;2023-05-17T00:05:09;45.22;43.29;47.14;;
67322;Laerm;57666;51.436;5.978;2023-05-17T00:05:20;44.77;42.60;46.64;;
67322;Laerm;57666;51.436;5.978;2023-05-17T00:05:31;45.01;42.97;48.24;;
67322;Laerm;57666;51.436;5.978;2023-05-17T00:05:41;45.05;43.09;49.00;;
67322;Laerm;57666;51.436;5.978;2023-05-17T00:05:52;44.56;42.52;46.67;;
67322;Laerm;57666;51.436;5.978;2023-05-17T00:06:04;45.26;42.88;47.40;;
67322;Laerm;57666;51.436;5.978;2023-05-17T00:06:15;45.16;42.86;49.35;;
67322;Laerm;57666;51.436;5.978;2023-05-17T00:06:25;45.19;42.65;47.76;;
67322;Laerm;57666;51.436;5.978;2023-05-17T00:06:35;45.79;43.16;48.18;;
67322;Laerm;57666;51.436;5.978;2023-05-17T00:06:46;45.34;43.32;47.72;;
67322;Laerm;57666;51.436;5.978;2023-05-17T00:06:56;45.46;43.13;48.11;;
67322;Laerm;57666;51.436;5.978;2023-05-17T00:07:09;44.62;42.01;46.91;;
67322;Laerm;57666;51.436;5.978;2023-05-17T00:07:19;45.70;43.43;48.86;;
67322;Laerm;57666;51.436;5.978;2023-05-17T00:07:29;45.26;42.32;47.90;;
67322;Laerm;57666;51.436;5.978;2023-05-17T00:07:40;45.42;43.56;47.84;;
67322;Laerm;57666;51.436;5.978;2023-05-17T00:07:50;45.17;42.89;47.38;;
67322;Laerm;57666;51.436;5.978;2023-05-17T00:08:03;45.39;43.31;48.79;;
67322;Laerm;57666;51.436;5.978;2023-05-17T00:08:13;45.38;43.06;47.53;;
67322;Laerm;57666;51.436;5.978;2023-05-17T00:08:24;45.00;42.90;47.29;;
67322;Laerm;57666;51.436;5.978;2023-05-17T00:08:36;45.03;42.85;47.86;;
67322;Laerm;57666;51.436;5.978;2023-05-17T00:08:46;45.12;42.67;47.85;;
67322;Laerm;57666;51.436;5.978;2023-05-17T00:08:57;45.10;42.64;47.55;;
67322;Laerm;57666;51.436;5.978;2023-05-17T00:09:07;45.06;43.10;46.93;;
67322;Laerm;57666;51.436;5.978;2023-05-17T00:09:20;45.15;42.79;47.28;;
67322;Laerm;57666;51.436;5.978;2023-05-17T00:09:30;45.06;43.09;50.44;;
67322;Laerm;57666;51.436;5.978;2023-05-17T00:09:40;45.39;43.12;47.37;;
67322;Laerm;57666;51.436;5.978;2023-05-17T00:09:51;46.35;43.68;52.96;;
67322;Laerm;57666;51.436;5.978;2023-05-17T00:10:01;46.11;43.15;52.76;;
67322;Laerm;57666;51.436;5.978;2023-05-17T00:10:12;45.56;42.95;49.81;;
67322;Laerm;57666;51.436;5.978;2023-05-17T00:10:22;45.15;42.72;48.97;;
67322;Laerm;57666;51.436;5.978;2023-05-17T00:10:32;45.39;43.47;47.75;;
67322;Laerm;57666;51.436;5.978;2023-05-17T00:10:43;45.02;42.41;46.91;;
67322;Laerm;57666;51.436;5.978;2023-05-17T00:10:53;45.16;43.02;49.15;;
67322;Laerm;57666;51.436;5.978;2023-05-17T00:11:04;45.16;43.07;47.99;;
67322;Laerm;57666;51.436;5.978;2023-05-17T00:11:16;44.94;42.73;47.08;;
67322;Laerm;57666;51.436;5.978;2023-05-17T00:11:26;44.99;42.85;47.28;;
67322;Laerm;57666;51.436;5.978;2023-05-17T00:11:37;44.78;42.97;47.01;;
67322;Laerm;57666;51.436;5.978;2023-05-17T00:11:47;44.99;42.44;46.97;;
67322;Laerm;57666;51.436;5.978;2023-05-17T00:11:58;44.95;42.48;47.11;;
67322;Laerm;57666;51.436;5.978;2023-05-17T00:12:08;44.26;42.31;46.98;;
67322;Laerm;57666;51.436;5.978;2023-05-17T00:12:19;44.86;42.67;46.70;;
67322;Laerm;57666;51.436;5.978;2023-05-17T00:12:29;44.92;42.56;46.94;;
67322;Laerm;57666;51.436;5.978;2023-05-17T00:12:42;44.78;42.14;47.15;;
67322;Laerm;57666;51.436;5.978;2023-05-17T00:12:52;45.12;42.82;47.48;;
67322;Laerm;57666;51.436;5.978;2023-05-17T00:13:03;45.40;43.36;47.06;;
67322;Laerm;57666;51.436;5.978;2023-05-17T00:13:13;45.38;43.29;47.67;;
67322;Laerm;57666;51.436;5.978;2023-05-17T00:13:23;45.05;42.48;47.31;;
67322;Laerm;57666;51.436;5.978;2023-05-17T00:13:34;45.21;42.79;47.31;;
67322;Laerm;57666;51.436;5.978;2023-05-17T00:13:44;45.56;43.38;47.57;;
67322;Laerm;57666;51.436;5.978;2023-05-17T00:13:55;44.91;42.40;47.35;;
67322;Laerm;57666;51.436;5.978;2023-05-17T00:14:05;44.94;42.85;47.14;;
67322;Laerm;57666;51.436;5.978;2023-05-17T00:14:15;44.88;42.61;46.51;;
67322;Laerm;57666;51.436;5.978;2023-05-17T00:14:26;45.57;42.79;48.25;;
67322;Laerm;57666;51.436;5.978;2023-05-17T00:14:36;45.67;43.46;47.61;;
67322;Laerm;57666;51.436;5.978;2023-05-17T00:14:47;45.29;42.89;47.64;;
67322;Laerm;57666;51.436;5.978;2023-05-17T00:14:57;44.77;42.65;47.48;;
67322;Laerm;57666;51.436;5.978;2023-05-17T00:15:08;44.68;42.64;46.83;;
67322;Laerm;57666;51.436;5.978;2023-05-17T00:15:18;45.16;42.92;47.23;;
67322;Laerm;57666;51.436;5.978;2023-05-17T00:15:29;45.18;42.73;48.37;;
67322;Laerm;57666;51.436;5.978;2023-05-17T00:15:39;45.07;42.67;47.01;;
67322;Laerm;57666;51.436;5.978;2023-05-17T00:15:52;44.71;42.32;46.78;;
67322;Laerm;57666;51.436;5.978;2023-05-17T00:16:03;44.80;42.41;46.82;;
67322;Laerm;57666;51.436;5.978;2023-05-17T00:16:14;45.04;42.47;47.24;;
67322;Laerm;57666;51.436;5.978;2023-05-17T00:16:24;44.98;42.60;47.18;;
67322;Laerm;57666;51.436;5.978;2023-05-17T00:16:34;45.02;42.82;47.08;;
67322;Laerm;57666;51.436;5.978;2023-05-17T00:16:45;45.02;43.33;46.68;;
67322;Laerm;57666;51.436;5.978;2023-05-17T00:16:55;44.85;41.92;47.46;;
67322;Laerm;57666;51.436;5.978;2023-05-17T00:17:05;45.05;42.83;48.64;;
67322;Laerm;57666;51.436;5.978;2023-05-17T00:17:16;45.05;43.14;47.62;;
67322;Laerm;57666;51.436;5.978;2023-05-17T00:17:26;45.03;42.60;46.62;;
67322;Laerm;57666;51.436;5.978;2023-05-17T00:17:37;45.30;43.38;47.34;;
67322;Laerm;57666;51.436;5.978;2023-05-17T00:17:47;45.28;43.25;47.45;;
67322;Laerm;57666;51.436;5.978;2023-05-17T00:17:57;45.59;43.43;47.46;;
67322;Laerm;57666;51.436;5.978;2023-05-17T00:18:08;45.27;42.85;48.01;;
67322;Laerm;57666;51.436;5.978;2023-05-17T00:18:18;45.28;43.47;47.70;;
67322;Laerm;57666;51.436;5.978;2023-05-17T00:18:29;44.90;42.67;46.79;;
67322;Laerm;57666;51.436;5.978;2023-05-17T00:18:42;44.80;42.42;47.11;;
67322;Laerm;57666;51.436;5.978;2023-05-17T00:18:52;45.01;43.04;46.94;;
67322;Laerm;57666;51.436;5.978;2023-05-17T00:19:03;44.87;42.91;47.00;;
67322;Laerm;57666;51.436;5.978;2023-05-17T00:19:14;44.69;42.77;46.97;;
67322;Laerm;57666;51.436;5.978;2023-05-17T00:19:24;44.46;42.44;46.81;;
67322;Laerm;57666;51.436;5.978;2023-05-17T00:19:37;44.32;41.76;46.62;;
67322;Laerm;57666;51.436;5.978;2023-05-17T00:19:47;44.55;42.63;46.53;;
67322;Laerm;57666;51.436;5.978;2023-05-17T00:20:01;44.62;42.71;46.66;;
67322;Laerm;57666;51.436;5.978;2023-05-17T00:20:12;45.21;43.26;47.92;;
67322;Laerm;57666;51.436;5.978;2023-05-17T00:20:22;44.99;42.17;46.89;;
67322;Laerm;57666;51.436;5.978;2023-05-17T00:20:33;44.83;42.55;46.78;;
67322;Laerm;57666;51.436;5.978;2023-05-17T00:20:44;45.15;43.06;48.35;;
67322;Laerm;57666;51.436;5.978;2023-05-17T00:20:55;44.82;42.62;47.72;;
67322;Laerm;57666;51.436;5.978;2023-05-17T00:21:06;44.77;42.72;46.82;;
67322;Laerm;57666;51.436;5.978;2023-05-17T00:21:16;44.66;42.88;46.70;;
67322;Laerm;57666;51.436;5.978;2023-05-17T00:21:27;44.99;42.69;46.99;;
67322;Laerm;57666;51.436;5.978;2023-05-17T00:21:38;44.64;42.70;46.59;;
67322;Laerm;57666;51.436;5.978;2023-05-17T00:21:54;44.89;43.06;46.88;;
67322;Laerm;57666;51.436;5.978;2023-05-17T00:22:04;44.98;43.02;46.77;;
67322;Laerm;57666;51.436;5.978;2023-05-17T00:22:14;45.05;43.24;47.28;;
67322;Laerm;57666;51.436;5.978;2023-05-17T00:22:25;44.98;42.27;46.91;;
67322;Laerm;57666;51.436;5.978;2023-05-17T00:22:35;44.70;42.63;47.23;;
67322;Laerm;57666;51.436;5.978;2023-05-17T00:22:46;44.87;42.98;47.08;;
67322;Laerm;57666;51.436;5.978;2023-05-17T00:22:57;44.81;42.65;47.24;;
67322;Laerm;57666;51.436;5.978;2023-05-17T00:23:09;45.32;43.24;47.35;;
67322;Laerm;57666;51.436;5.978;2023-05-17T00:23:20;45.41;43.34;48.55;;
67322;Laerm;57666;51.436;5.978;2023-05-17T00:23:30;45.32;43.50;47.33;;
67322;Laerm;57666;51.436;5.978;2023-05-17T00:23:41;44.99;42.51;46.58;;
67322;Laerm;57666;51.436;5.978;2023-05-17T00:23:52;45.15;43.41;48.40;;
67322;Laerm;57666;51.436;5.978;2023-05-17T00:24:02;44.92;43.28;47.86;;
67322;Laerm;57666;51.436;5.978;2023-05-17T00:24:13;44.51;42.73;46.47;;
67322;Laerm;57666;51.436;5.978;2023-05-17T00:24:24;44.37;42.67;49.87;;
67322;Laerm;57666;51.436;5.978;2023-05-17T00:24:37;44.89;42.54;47.06;;
67322;Laerm;57666;51.436;5.978;2023-05-17T00:24:47;44.91;43.12;47.27;;
67322;Laerm;57666;51.436;5.978;2023-05-17T00:25:03;44.52;42.20;46.93;;
67322;Laerm;57666;51.436;5.978;2023-05-17T00:25:14;44.87;42.18;47.63;;
67322;Laerm;57666;51.436;5.978;2023-05-17T00:25:24;45.11;43.28;47.48;;
67322;Laerm;57666;51.436;5.978;2023-05-17T00:25:35;44.95;42.64;47.36;;
67322;Laerm;57666;51.436;5.978;2023-05-17T00:25:45;45.33;43.00;46.95;;
67322;Laerm;57666;51.436;5.978;2023-05-17T00:25:56;44.98;42.22;47.01;;
67322;Laerm;57666;51.436;5.978;2023-05-17T00:26:09;44.97;42.69;47.32;;
67322;Laerm;57666;51.436;5.978;2023-05-17T00:26:19;44.32;42.22;46.90;;
67322;Laerm;57666;51.436;5.978;2023-05-17T00:26:30;44.30;42.22;46.04;;
67322;Laerm;57666;51.436;5.978;2023-05-17T00:26:43;44.94;42.94;46.97;;
67322;Laerm;57666;51.436;5.978;2023-05-17T00:26:53;44.75;42.64;46.38;;
67322;Laerm;57666;51.436;5.978;2023-05-17T00:27:04;44.63;42.39;46.50;;
67322;Laerm;57666;51.436;5.978;2023-05-17T00:27:14;44.20;41.74;46.36;;
67322;Laerm;57666;51.436;5.978;2023-05-17T00:27:25;44.17;42.21;45.93;;
67322;Laerm;57666;51.436;5.978;2023-05-17T00:27:35;44.57;42.59;46.59;;
67322;Laerm;57666;51.436;5.978;2023-05-17T00:27:46;44.90;42.66;47.67;;
67322;Laerm;57666;51.436;5.978;2023-05-17T00:27:57;45.12;42.30;47.27;;
67322;Laerm;57666;51.436;5.978;2023-05-17T00:28:07;44.93;42.81;47.18;;
67322;Laerm;57666;51.436;5.978;2023-05-17T00:28:18;44.81;42.75;47.00;;
67322;Laerm;57666;51.436;5.978;2023-05-17T00:28:29;45.00;42.85;47.12;;
67322;Laerm;57666;51.436;5.978;2023-05-17T00:28:39;45.24;43.07;47.58;;
67322;Laerm;57666;51.436;5.978;2023-05-17T00:28:50;45.28;43.41;47.41;;
67322;Laerm;57666;51.436;5.978;2023-05-17T00:29:01;45.27;42.65;48.10;;
67322;Laerm;57666;51.436;5.978;2023-05-17T00:29:12;45.23;43.41;47.88;;
67322;Laerm;57666;51.436;5.978;2023-05-17T00:29:23;45.25;43.22;47.23;;
67322;Laerm;57666;51.436;5.978;2023-05-17T00:29:33;44.57;42.09;46.29;;
67322;Laerm;57666;51.436;5.978;2023-05-17T00:29:44;44.67;42.77;46.57;;
67322;Laerm;57666;51.436;5.978;2023-05-17T00:29:54;44.61;41.57;46.74;;
67322;Laerm;57666;51.436;5.978;2023-05-17T00:30:05;44.46;42.39;46.77;;
67322;Laerm;57666;51.436;5.978;2023-05-17T00:30:16;44.85;42.83;47.21;;
67322;Laerm;57666;51.436;5.978;2023-05-17T00:30:30;45.10;42.96;46.99;;
67322;Laerm;57666;51.436;5.978;2023-05-17T00:30:43;45.31;43.01;47.79;;
67322;Laerm;57666;51.436;5.978;2023-05-17T00:30:53;44.61;42.37;46.68;;
67322;Laerm;57666;51.436;5.978;2023-05-17T00:31:04;45.68;42.69;54.00;;
67322;Laerm;57666;51.436;5.978;2023-05-17T00:31:14;45.19;43.29;47.98;;
67322;Laerm;57666;51.436;5.978;2023-05-17T00:31:25;44.89;42.84;46.92;;
67322;Laerm;57666;51.436;5.978;2023-05-17T00:31:35;45.31;43.43;47.23;;
67322;Laerm;57666;51.436;5.978;2023-05-17T00:31:46;45.30;42.66;47.78;;
67322;Laerm;57666;51.436;5.978;2023-05-17T00:31:57;44.90;42.79;47.03;;
67322;Laerm;57666;51.436;5.978;2023-05-17T00:32:07;44.76;42.28;46.58;;
67322;Laerm;57666;51.436;5.978;2023-05-17T00:32:18;44.79;42.76;46.72;;
67322;Laerm;57666;51.436;5.978;2023-05-17T00:32:28;44.57;42.69;47.04;;
67322;Laerm;57666;51.436;5.978;2023-05-17T00:32:39;44.27;42.17;48.41;;
67322;Laerm;57666;51.436;5.978;2023-05-17T00:32:52;44.32;41.25;46.81;;
67322;Laerm;57666;51.436;5.978;2023-05-17T00:33:03;44.34;42.43;46.30;;
67322;Laerm;57666;51.436;5.978;2023-05-17T00:33:13;46.54;42.78;54.24;;
67322;Laerm;57666;51.436;5.978;2023-05-17T00:33:24;59.25;49.05;65.66;;
67322;Laerm;57666;51.436;5.978;2023-05-17T00:33:35;50.04;43.26;60.64;;
67322;Laerm;57666;51.436;5.978;2023-05-17T00:33:45;44.89;42.99;46.95;;
67322;Laerm;57666;51.436;5.978;2023-05-17T00:33:56;44.73;42.85;46.45;;
67322;Laerm;57666;51.436;5.978;2023-05-17T00:34:07;44.98;43.06;47.28;;
67322;Laerm;57666;51.436;5.978;2023-05-17T00:34:20;44.83;42.54;47.43;;
67322;Laerm;57666;51.436;5.978;2023-05-17T00:34:31;44.90;42.84;46.95;;
67322;Laerm;57666;51.436;5.978;2023-05-17T00:34:41;44.99;42.90;47.12;;
67322;Laerm;57666;51.436;5.978;2023-05-17T00:34:52;44.60;42.89;47.81;;
67322;Laerm;57666;51.436;5.978;2023-05-17T00:35:03;44.61;42.44;46.64;;
67322;Laerm;57666;51.436;5.978;2023-05-17T00:35:13;44.77;42.63;46.93;;
67322;Laerm;57666;51.436;5.978;2023-05-17T00:35:24;45.10;43.10;46.86;;
67322;Laerm;57666;51.436;5.978;2023-05-17T00:35:35;44.85;42.76;46.60;;
67322;Laerm;57666;51.436;5.978;2023-05-17T00:35:45;44.61;42.63;47.00;;
67322;Laerm;57666;51.436;5.978;2023-05-17T00:35:56;46.35;43.32;49.01;;
67322;Laerm;57666;51.436;5.978;2023-05-17T00:36:07;50.48;46.66;54.59;;
67322;Laerm;57666;51.436;5.978;2023-05-17T00:36:18;68.30;53.12;75.94;;
67322;Laerm;57666;51.436;5.978;2023-05-17T00:36:30;67.47;56.53;70.77;;
67322;Laerm;57666;51.436;5.978;2023-05-17T00:36:41;49.63;43.20;57.04;;
67322;Laerm;57666;51.436;5.978;2023-05-17T00:36:54;44.48;42.21;46.70;;
67322;Laerm;57666;51.436;5.978;2023-05-17T00:37:05;44.38;42.36;46.30;;
67322;Laerm;57666;51.436;5.978;2023-05-17T00:37:15;44.48;42.03;46.68;;
67322;Laerm;57666;51.436;5.978;2023-05-17T00:37:26;44.26;42.42;46.12;;
67322;Laerm;57666;51.436;5.978;2023-05-17T00:37:36;44.41;41.94;46.58;;
67322;Laerm;57666;51.436;5.978;2023-05-17T00:37:47;44.36;42.30;48.26;;
67322;Laerm;57666;51.436;5.978;2023-05-17T00:38:00;44.54;42.43;47.34;;
67322;Laerm;57666;51.436;5.978;2023-05-17T00:38:11;44.82;42.73;46.60;;
67322;Laerm;57666;51.436;5.978;2023-05-17T00:38:21;45.21;43.13;47.00;;
67322;Laerm;57666;51.436;5.978;2023-05-17T00:38:32;44.97;43.01;47.52;;
67322;Laerm;57666;51.436;5.978;2023-05-17T00:38:42;44.70;42.55;46.66;;
67322;Laerm;57666;51.436;5.978;2023-05-17T00:38:53;44.88;42.17;50.10;;
67322;Laerm;57666;51.436;5.978;2023-05-17T00:39:04;44.59;42.23;46.62;;
67322;Laerm;57666;51.436;5.978;2023-05-17T00:39:14;44.83;42.17;47.72;;
67322;Laerm;57666;51.436;5.978;2023-05-17T00:39:25;44.70;42.83;46.80;;
67322;Laerm;57666;51.436;5.978;2023-05-17T00:39:35;44.66;42.17;47.00;;
67322;Laerm;57666;51.436;5.978;2023-05-17T00:39:46;44.60;42.05;47.15;;
67322;Laerm;57666;51.436;5.978;2023-05-17T00:39:59;44.87;42.59;46.88;;
67322;Laerm;57666;51.436;5.978;2023-05-17T00:40:10;45.06;42.67;47.44;;
67322;Laerm;57666;51.436;5.978;2023-05-17T00:40:21;44.89;43.20;46.97;;
67322;Laerm;57666;51.436;5.978;2023-05-17T00:40:31;44.62;42.34;46.88;;
67322;Laerm;57666;51.436;5.978;2023-05-17T00:40:42;44.70;42.80;47.01;;
67322;Laerm;57666;51.436;5.978;2023-05-17T00:40:52;44.44;42.42;46.20;;
67322;Laerm;57666;51.436;5.978;2023-05-17T00:41:03;44.40;42.48;46.29;;
67322;Laerm;57666;51.436;5.978;2023-05-17T00:41:13;44.36;42.32;46.41;;
67322;Laerm;57666;51.436;5.978;2023-05-17T00:41:24;44.78;43.08;47.07;;
67322;Laerm;57666;51.436;5.978;2023-05-17T00:41:34;45.38;43.03;48.51;;
67322;Laerm;57666;51.436;5.978;2023-05-17T00:41:45;45.08;42.71;47.82;;
67322;Laerm;57666;51.436;5.978;2023-05-17T00:41:55;44.81;42.59;47.39;;
67322;Laerm;57666;51.436;5.978;2023-05-17T00:42:06;45.23;43.48;48.18;;
67322;Laerm;57666;51.436;5.978;2023-05-17T00:42:16;45.42;43.04;47.33;;
67322;Laerm;57666;51.436;5.978;2023-05-17T00:42:40;45.36;43.07;48.49;;
67322;Laerm;57666;51.436;5.978;2023-05-17T00:42:51;45.14;42.67;47.88;;
67322;Laerm;57666;51.436;5.978;2023-05-17T00:43:01;44.97;43.15;47.54;;
67322;Laerm;57666;51.436;5.978;2023-05-17T00:43:12;44.85;42.97;47.10;;
67322;Laerm;57666;51.436;5.978;2023-05-17T00:43:22;44.76;42.70;47.06;;
67322;Laerm;57666;51.436;5.978;2023-05-17T00:43:38;44.35;41.84;47.11;;
67322;Laerm;57666;51.436;5.978;2023-05-17T00:43:48;44.72;42.41;48.03;;
67322;Laerm;57666;51.436;5.978;2023-05-17T00:43:59;45.04;43.16;47.88;;
67322;Laerm;57666;51.436;5.978;2023-05-17T00:44:09;44.69;42.80;46.79;;
67322;Laerm;57666;51.436;5.978;2023-05-17T00:44:20;44.49;42.72;46.51;;
67322;Laerm;57666;51.436;5.978;2023-05-17T00:44:30;44.48;42.24;46.80;;
67322;Laerm;57666;51.436;5.978;2023-05-17T00:44:43;44.59;42.35;47.26;;
67322;Laerm;57666;51.436;5.978;2023-05-17T00:44:53;44.81;42.71;47.10;;
67322;Laerm;57666;51.436;5.978;2023-05-17T00:45:04;44.55;42.16;47.72;;
67322;Laerm;57666;51.436;5.978;2023-05-17T00:45:15;44.50;42.56;46.38;;
67322;Laerm;57666;51.436;5.978;2023-05-17T00:45:25;44.76;42.70;46.91;;
67322;Laerm;57666;51.436;5.978;2023-05-17T00:45:41;44.59;42.43;47.14;;
67322;Laerm;57666;51.436;5.978;2023-05-17T00:45:54;44.50;41.59;47.15;;
67322;Laerm;57666;51.436;5.978;2023-05-17T00:46:05;44.78;42.38;46.61;;
67322;Laerm;57666;51.436;5.978;2023-05-17T00:46:15;44.54;42.02;46.61;;
67322;Laerm;57666;51.436;5.978;2023-05-17T00:46:25;44.40;42.58;46.54;;
67322;Laerm;57666;51.436;5.978;2023-05-17T00:46:36;44.37;41.65;46.81;;
67322;Laerm;57666;51.436;5.978;2023-05-17T00:46:46;44.44;42.27;46.93;;
67322;Laerm;57666;51.436;5.978;2023-05-17T00:46:59;44.78;42.63;47.17;;
67322;Laerm;57666;51.436;5.978;2023-05-17T00:47:12;44.87;42.30;47.25;;
67322;Laerm;57666;51.436;5.978;2023-05-17T00:47:22;44.97;43.23;48.28;;
67322;Laerm;57666;51.436;5.978;2023-05-17T00:47:33;45.14;43.15;47.48;;
67322;Laerm;57666;51.436;5.978;2023-05-17T00:47:43;44.89;42.40;47.18;;
67322;Laerm;57666;51.436;5.978;2023-05-17T00:47:53;45.50;43.78;47.94;;
67322;Laerm;57666;51.436;5.978;2023-05-17T00:48:04;45.51;43.34;47.95;;
67322;Laerm;57666;51.436;5.978;2023-05-17T00:48:14;45.03;42.87;47.80;;
67322;Laerm;57666;51.436;5.978;2023-05-17T00:48:25;44.56;42.43;47.10;;
67322;Laerm;57666;51.436;5.978;2023-05-17T00:48:37;44.80;41.98;46.89;;
67322;Laerm;57666;51.436;5.978;2023-05-17T00:48:47;44.83;43.10;46.50;;
67322;Laerm;57666;51.436;5.978;2023-05-17T00:48:58;60.64;43.77;68.21;;
67322;Laerm;57666;51.436;5.978;2023-05-17T00:49:08;66.35;63.82;69.66;;
67322;Laerm;57666;51.436;5.978;2023-05-17T00:49:18;67.20;64.33;72.92;;
67322;Laerm;57666;51.436;5.978;2023-05-17T00:49:29;61.59;51.51;69.14;;
67322;Laerm;57666;51.436;5.978;2023-05-17T00:49:39;50.76;47.25;54.20;;
67322;Laerm;57666;51.436;5.978;2023-05-17T00:49:49;48.27;45.56;50.54;;
67322;Laerm;57666;51.436;5.978;2023-05-17T00:50:01;46.49;44.34;48.42;;
67322;Laerm;57666;51.436;5.978;2023-05-17T00:50:11;46.48;44.36;48.69;;
67322;Laerm;57666;51.436;5.978;2023-05-17T00:50:22;45.94;43.35;48.23;;
67322;Laerm;57666;51.436;5.978;2023-05-17T00:50:32;45.98;43.76;48.48;;
67322;Laerm;57666;51.436;5.978;2023-05-17T00:50:43;45.38;42.90;47.86;;
67322;Laerm;57666;51.436;5.978;2023-05-17T00:50:54;45.37;43.17;47.19;;
67322;Laerm;57666;51.436;5.978;2023-05-17T00:51:05;45.48;42.84;47.49;;
67322;Laerm;57666;51.436;5.978;2023-05-17T00:51:16;45.06;42.48;47.38;;
67322;Laerm;57666;51.436;5.978;2023-05-17T00:51:28;45.00;42.81;47.90;;
67322;Laerm;57666;51.436;5.978;2023-05-17T00:51:38;45.22;43.28;46.93;;
67322;Laerm;57666;51.436;5.978;2023-05-17T00:51:49;45.05;42.86;47.25;;
67322;Laerm;57666;51.436;5.978;2023-05-17T00:52:00;45.00;42.70;47.23;;
67322;Laerm;57666;51.436;5.978;2023-05-17T00:52:11;45.02;43.20;46.98;;
67322;Laerm;57666;51.436;5.978;2023-05-17T00:52:21;45.13;42.84;47.33;;
67322;Laerm;57666;51.436;5.978;2023-05-17T00:52:32;44.91;42.79;46.99;;
67322;Laerm;57666;51.436;5.978;2023-05-17T00:52:42;45.09;42.50;47.51;;
67322;Laerm;57666;51.436;5.978;2023-05-17T00:52:53;45.35;42.82;47.96;;
67322;Laerm;57666;51.436;5.978;2023-05-17T00:53:04;45.10;43.11;46.77;;
67322;Laerm;57666;51.436;5.978;2023-05-17T00:53:14;45.27;43.00;47.33;;
67322;Laerm;57666;51.436;5.978;2023-05-17T00:53:25;45.42;43.21;47.51;;
67322;Laerm;57666;51.436;5.978;2023-05-17T00:53:39;45.37;43.15;47.77;;
67322;Laerm;57666;51.436;5.978;2023-05-17T00:53:49;44.77;43.09;46.97;;
67322;Laerm;57666;51.436;5.978;2023-05-17T00:54:00;44.82;42.10;46.99;;
67322;Laerm;57666;51.436;5.978;2023-05-17T00:54:13;45.28;43.04;47.77;;
67322;Laerm;57666;51.436;5.978;2023-05-17T00:54:24;45.36;42.97;47.30;;
67322;Laerm;57666;51.436;5.978;2023-05-17T00:54:35;45.64;42.61;48.99;;
67322;Laerm;57666;51.436;5.978;2023-05-17T00:54:45;45.33;43.41;47.65;;
67322;Laerm;57666;51.436;5.978;2023-05-17T00:54:56;44.92;42.61;46.60;;
67322;Laerm;57666;51.436;5.978;2023-05-17T00:55:06;45.06;43.29;47.16;;
67322;Laerm;57666;51.436;5.978;2023-05-17T00:55:17;45.30;43.35;48.02;;
67322;Laerm;57666;51.436;5.978;2023-05-17T00:55:28;45.47;42.53;48.39;;
67322;Laerm;57666;51.436;5.978;2023-05-17T00:55:39;45.33;43.27;47.63;;
67322;Laerm;57666;51.436;5.978;2023-05-17T00:55:50;45.68;43.47;52.48;;
67322;Laerm;57666;51.436;5.978;2023-05-17T00:56:04;45.36;43.26;47.25;;
67322;Laerm;57666;51.436;5.978;2023-05-17T00:56:15;45.56;43.46;48.56;;
67322;Laerm;57666;51.436;5.978;2023-05-17T00:56:26;45.99;43.56;49.65;;
67322;Laerm;57666;51.436;5.978;2023-05-17T00:56:36;47.19;45.54;49.09;;
67322;Laerm;57666;51.436;5.978;2023-05-17T00:56:50;58.83;46.25;67.43;;
67322;Laerm;57666;51.436;5.978;2023-05-17T00:57:00;66.13;61.67;73.60;;
67322;Laerm;57666;51.436;5.978;2023-05-17T00:57:11;61.03;45.48;70.36;;
67322;Laerm;57666;51.436;5.978;2023-05-17T00:57:21;45.18;43.14;47.45;;
67322;Laerm;57666;51.436;5.978;2023-05-17T00:57:32;45.18;42.88;47.53;;
67322;Laerm;57666;51.436;5.978;2023-05-17T00:57:43;44.72;42.83;46.93;;
67322;Laerm;57666;51.436;5.978;2023-05-17T00:57:53;44.68;42.79;46.81;;
67322;Laerm;57666;51.436;5.978;2023-05-17T00:58:04;44.73;42.79;46.81;;
67322;Laerm;57666;51.436;5.978;2023-05-17T00:58:14;44.77;42.72;46.85;;
67322;Laerm;57666;51.436;5.978;2023-05-17T00:58:25;44.88;42.84;47.10;;
67322;Laerm;57666;51.436;5.978;2023-05-17T00:58:37;45.45;43.70;47.17;;
67322;Laerm;57666;51.436;5.978;2023-05-17T00:58:49;44.95;42.74;48.28;;
67322;Laerm;57666;51.436;5.978;2023-05-17T00:59:01;45.31;43.34;47.31;;
67322;Laerm;57666;51.436;5.978;2023-05-17T00:59:12;45.60;43.32;48.73;;
67322;Laerm;57666;51.436;5.978;2023-05-17T00:59:22;44.99;42.36;47.32;;
67322;Laerm;57666;51.436;5.978;2023-05-17T00:59:33;45.01;42.66;46.95;;
67322;Laerm;57666;51.436;5.978;2023-05-17T00:59:44;44.75;42.54;47.24;;
67322;Laerm;57666;51.436;5.978;2023-05-17T00:59:54;45.63;43.12;48.01;;
67322;Laerm;57666;51.436;5.978;2023-05-17T01:00:05;46.27;43.03;57.04;;
67322;Laerm;57666;51.436;5.978;2023-05-17T01:00:16;47.52;43.28;56.49;;
67322;Laerm;57666;51.436;5.978;2023-05-17T01:00:26;44.85;42.70;46.89;;
67322;Laerm;57666;51.436;5.978;2023-05-17T01:00:37;44.80;42.33;46.77;;
67322;Laerm;57666;51.436;5.978;2023-05-17T01:00:52;44.89;42.64;47.10;;
67322;Laerm;57666;51.436;5.978;2023-05-17T01:01:05;44.84;42.33;48.10;;
67322;Laerm;57666;51.436;5.978;2023-05-17T01:01:16;45.42;43.63;47.83;;